createdAt,value
2017-12-23T00:01:02.635Z,16.27
2017-12-23T00:03:32.591Z,16.53
2017-12-23T00:06:02.626Z,14.50
2017-12-23T00:08:32.562Z,16.30
2017-12-23T00:11:02.520Z,15.63
2017-12-23T00:13:32.447Z,17.83
2017-12-23T00:16:02.468Z,16.93
2017-12-23T00:18:32.424Z,15.30
2017-12-23T00:21:02.378Z,17.30
2017-12-23T00:23:32.299Z,15.80
2017-12-23T00:26:02.301Z,16.10
2017-12-23T00:28:32.202Z,14.83
2017-12-23T00:31:02.148Z,16.87
2017-12-23T00:33:32.189Z,15.90
2017-12-23T00:36:02.177Z,16.83
2017-12-23T00:38:32.082Z,16.80
2017-12-23T00:41:02.072Z,16.70
2017-12-23T00:43:31.988Z,18.97
2017-12-23T00:46:01.936Z,19.90
2017-12-23T00:48:35.262Z,17.60
2017-12-23T00:51:08.934Z,19.07
2017-12-23T00:53:41.650Z,19.63
2017-12-23T00:56:18.068Z,19.40
2017-12-23T00:58:51.201Z,20.70
2017-12-23T01:01:21.099Z,19.33
2017-12-23T01:03:55.037Z,20.10
2017-12-23T01:06:24.918Z,20.80
2017-12-23T01:08:54.836Z,20.40
2017-12-23T01:11:24.759Z,19.53
2017-12-23T01:13:54.677Z,19.00
2017-12-23T01:16:24.726Z,21.10
2017-12-23T01:18:54.631Z,19.00
2017-12-23T01:21:24.538Z,20.13
2017-12-23T01:23:54.500Z,19.90
2017-12-23T01:26:24.546Z,20.30
2017-12-23T01:28:54.476Z,22.43
2017-12-23T01:31:24.402Z,20.70
2017-12-23T01:33:55.214Z,24.57
2017-12-23T01:36:25.155Z,20.30
2017-12-23T01:38:55.041Z,24.73
2017-12-23T01:41:24.965Z,24.80
2017-12-23T01:49:58.048Z,22.00
2017-12-23T01:52:27.952Z,23.10
2017-12-23T01:54:57.873Z,26.03
2017-12-23T01:57:27.774Z,30.83
2017-12-23T01:59:57.649Z,30.27
2017-12-23T02:02:27.576Z,30.40
2017-12-23T02:04:57.515Z,29.50
2017-12-23T02:07:27.427Z,29.83
2017-12-23T02:09:57.586Z,25.03
2017-12-23T02:12:27.526Z,27.33
2017-12-23T02:14:57.440Z,25.23
2017-12-23T02:17:27.345Z,27.63
2017-12-23T02:19:57.280Z,23.53
2017-12-23T02:22:27.222Z,22.67
2017-12-23T02:24:57.159Z,26.80
2017-12-23T02:27:27.072Z,23.17
2017-12-23T02:29:57.042Z,23.53
2017-12-23T02:32:26.979Z,21.70
2017-12-23T02:34:56.841Z,26.00
2017-12-23T02:37:26.761Z,23.30
2017-12-23T02:39:56.771Z,22.70
2017-12-23T02:42:29.870Z,24.80
2017-12-23T02:45:00.303Z,23.93
2017-12-23T02:47:30.222Z,25.77
2017-12-23T02:50:00.157Z,21.17
2017-12-23T02:52:30.065Z,23.20
2017-12-23T02:54:59.957Z,25.00
2017-12-23T02:57:30.909Z,25.83
2017-12-23T03:00:00.813Z,25.67
2017-12-23T03:02:30.781Z,23.67
2017-12-23T03:05:00.685Z,22.63
2017-12-23T03:07:30.646Z,23.17
2017-12-23T03:10:00.528Z,21.93
2017-12-23T03:12:30.428Z,23.20
2017-12-23T03:15:00.311Z,22.00
2017-12-23T03:17:30.264Z,21.10
2017-12-23T03:20:00.181Z,19.93
2017-12-23T03:22:30.075Z,17.00
2017-12-23T03:24:59.950Z,19.10
2017-12-23T03:27:30.753Z,20.20
2017-12-23T03:30:00.640Z,18.30
2017-12-23T03:32:30.551Z,16.57
2017-12-23T03:35:00.442Z,17.57
2017-12-23T03:37:30.360Z,18.17
2017-12-23T03:40:00.312Z,19.73
2017-12-23T03:42:30.207Z,16.03
2017-12-23T03:45:00.101Z,17.47
2017-12-23T03:47:30.018Z,17.37
2017-12-23T03:49:59.943Z,17.60
2017-12-23T03:52:29.849Z,17.87
2017-12-23T03:54:59.743Z,17.90
2017-12-23T03:57:29.663Z,16.50
2017-12-23T03:59:59.619Z,14.97
2017-12-23T04:02:29.490Z,15.37
2017-12-23T04:04:59.416Z,17.73
2017-12-23T04:07:29.290Z,16.33
2017-12-23T04:09:59.200Z,16.33
2017-12-23T04:12:29.088Z,16.67
2017-12-23T04:14:58.997Z,16.50
2017-12-23T04:17:28.908Z,16.30
2017-12-23T04:19:58.798Z,19.40
2017-12-23T04:22:28.726Z,16.37
2017-12-23T04:24:58.607Z,17.03
2017-12-23T04:27:28.510Z,16.40
2017-12-23T04:29:58.393Z,17.67
2017-12-23T04:32:28.338Z,16.37
2017-12-23T04:34:58.275Z,16.23
2017-12-23T04:37:28.191Z,17.20
2017-12-23T04:39:58.059Z,17.10
2017-12-23T04:42:27.946Z,20.33
2017-12-23T04:44:57.822Z,14.20
2017-12-23T04:47:27.723Z,15.00
2017-12-23T04:49:57.611Z,15.80
2017-12-23T04:52:27.509Z,17.80
2017-12-23T04:54:57.583Z,16.50
2017-12-23T04:57:27.538Z,13.63
2017-12-23T04:59:58.348Z,15.33
2017-12-23T05:02:28.234Z,14.90
2017-12-23T05:04:58.158Z,14.90
2017-12-23T05:07:28.050Z,12.70
2017-12-23T05:09:57.947Z,14.00
2017-12-23T05:12:27.954Z,14.27
2017-12-23T05:14:57.846Z,13.67
2017-12-23T05:17:27.753Z,14.37
2017-12-23T05:19:57.646Z,11.23
2017-12-23T05:22:27.550Z,13.97
2017-12-23T05:24:57.510Z,13.03
2017-12-23T05:27:27.440Z,14.07
2017-12-23T05:29:57.326Z,14.33
2017-12-23T05:32:27.227Z,13.50
2017-12-23T05:34:57.132Z,14.13
2017-12-23T05:37:27.076Z,12.80
2017-12-23T05:39:56.950Z,13.67
2017-12-23T05:42:26.881Z,13.50
2017-12-23T05:44:56.764Z,13.80
2017-12-23T05:47:26.646Z,13.43
2017-12-23T05:49:56.541Z,13.40
2017-12-23T05:52:26.418Z,12.13
2017-12-23T05:54:56.551Z,13.40
2017-12-23T05:57:26.425Z,14.43
2017-12-23T05:59:56.362Z,13.07
2017-12-23T06:02:26.294Z,11.90
2017-12-23T06:04:56.201Z,13.13
2017-12-23T06:07:26.083Z,12.27
2017-12-23T06:09:56.007Z,13.60
2017-12-23T06:12:25.896Z,13.13
2017-12-23T06:14:55.875Z,13.53
2017-12-23T06:17:25.757Z,11.30
2017-12-23T06:19:55.653Z,12.70
2017-12-23T06:22:25.556Z,14.03
2017-12-23T06:24:55.480Z,13.90
2017-12-23T06:27:25.389Z,14.00
2017-12-23T06:29:55.269Z,13.90
2017-12-23T06:32:25.311Z,14.53
2017-12-23T06:34:55.195Z,13.73
2017-12-23T06:37:25.167Z,16.20
2017-12-23T06:39:55.030Z,16.40
2017-12-23T06:42:24.931Z,14.50
2017-12-23T06:44:54.976Z,17.53
2017-12-23T06:47:24.909Z,18.27
2017-12-23T06:49:54.972Z,19.13
2017-12-23T06:52:24.869Z,19.20
2017-12-23T06:54:54.792Z,20.27
2017-12-23T06:57:24.666Z,20.10
2017-12-23T06:59:54.563Z,19.40
2017-12-23T07:02:24.498Z,19.73
2017-12-23T07:04:54.396Z,19.90
2017-12-23T07:07:24.317Z,19.47
2017-12-23T07:09:54.229Z,20.83
2017-12-23T07:12:24.098Z,21.87
2017-12-23T07:14:54.011Z,19.90
2017-12-23T07:17:23.899Z,22.17
2017-12-23T07:19:53.828Z,21.17
2017-12-23T07:22:23.802Z,22.90
2017-12-23T07:24:53.694Z,19.30
2017-12-23T07:27:23.571Z,24.00
2017-12-23T07:29:53.476Z,23.07
2017-12-23T07:32:23.354Z,25.83
2017-12-23T07:34:53.239Z,23.07
2017-12-23T07:37:23.302Z,22.57
2017-12-23T07:39:53.176Z,21.80
2017-12-23T07:42:23.117Z,23.60
2017-12-23T07:44:53.014Z,22.07
2017-12-23T07:47:22.899Z,19.90
2017-12-23T07:49:52.841Z,21.90
2017-12-23T07:52:22.723Z,21.03
2017-12-23T07:54:52.690Z,20.13
2017-12-23T07:57:22.583Z,17.40
2017-12-23T07:59:52.496Z,19.97
2017-12-23T08:02:22.407Z,17.53
2017-12-23T08:04:52.326Z,18.70
2017-12-23T08:07:22.198Z,16.53
2017-12-23T08:09:52.111Z,18.70
2017-12-23T08:12:22.014Z,15.13
2017-12-23T08:14:52.026Z,19.23
2017-12-23T08:17:21.914Z,14.23
2017-12-23T08:19:51.865Z,15.87
2017-12-23T08:22:21.753Z,17.00
2017-12-23T08:24:51.624Z,16.27
2017-12-23T08:27:21.529Z,17.20
2017-12-23T08:29:51.421Z,19.00
2017-12-23T08:32:21.421Z,19.83
2017-12-23T08:34:51.306Z,15.30
2017-12-23T08:37:21.224Z,13.70
2017-12-23T08:39:51.116Z,17.93
2017-12-23T08:42:21.027Z,21.67
2017-12-23T08:44:50.961Z,19.07
2017-12-23T08:47:20.880Z,20.97
2017-12-23T08:49:50.744Z,18.30
2017-12-23T08:52:20.643Z,17.10
2017-12-23T08:54:50.555Z,17.03
2017-12-23T08:57:20.461Z,17.10
2017-12-23T08:59:50.355Z,17.73
2017-12-23T09:02:20.244Z,15.30
2017-12-23T09:04:50.184Z,17.40
2017-12-23T09:07:20.077Z,13.93
2017-12-23T09:09:49.981Z,16.80
2017-12-23T09:12:19.870Z,17.10
2017-12-23T09:14:49.746Z,16.60
2017-12-23T09:17:19.657Z,13.20
2017-12-23T09:19:49.562Z,16.00
2017-12-23T09:22:19.479Z,15.50
2017-12-23T09:24:49.382Z,16.27
2017-12-23T09:27:19.298Z,16.40
2017-12-23T09:29:49.178Z,15.63
2017-12-23T09:32:19.074Z,15.60
2017-12-23T09:34:48.968Z,13.20
2017-12-23T09:37:18.914Z,14.00
2017-12-23T09:39:48.796Z,15.47
2017-12-23T09:42:18.688Z,14.13
2017-12-23T09:44:48.579Z,15.40
2017-12-23T09:47:18.450Z,15.20
2017-12-23T09:49:48.406Z,15.10
2017-12-23T09:52:18.282Z,15.57
2017-12-23T09:54:48.287Z,15.00
2017-12-23T09:57:18.179Z,14.63
2017-12-23T09:59:48.078Z,14.77
2017-12-23T10:02:17.978Z,13.60
2017-12-23T10:04:47.875Z,15.40
2017-12-23T10:07:17.766Z,17.87
2017-12-23T10:09:47.654Z,15.57
2017-12-23T10:12:17.662Z,16.90
2017-12-23T10:14:47.550Z,16.97
2017-12-23T10:17:17.497Z,17.33
2017-12-23T10:19:47.498Z,16.60
2017-12-23T10:22:17.439Z,16.47
2017-12-23T10:24:47.348Z,14.07
2017-12-23T10:27:17.337Z,14.60
2017-12-23T10:29:47.253Z,17.57
2017-12-23T10:32:17.156Z,16.57
2017-12-23T10:34:47.090Z,14.20
2017-12-23T10:37:17.094Z,18.90
2017-12-23T10:39:46.960Z,17.97
2017-12-23T10:42:16.866Z,16.17
2017-12-23T10:44:46.766Z,14.77
2017-12-23T10:47:16.657Z,16.40
2017-12-23T10:49:46.561Z,10.33
2017-12-23T10:52:16.444Z,13.77
2017-12-23T10:54:46.499Z,10.00
2017-12-23T10:57:16.376Z,10.13
2017-12-23T10:59:46.306Z,10.30
2017-12-23T11:02:16.175Z,9.63
2017-12-23T11:04:46.237Z,11.00
2017-12-23T11:07:16.122Z,11.77
2017-12-23T11:09:46.067Z,14.47
2017-12-23T11:12:15.986Z,14.67
2017-12-23T11:14:45.898Z,16.80
2017-12-23T11:17:15.796Z,14.70
2017-12-23T11:19:45.751Z,15.23
2017-12-23T11:22:15.661Z,11.40
2017-12-23T11:24:45.638Z,12.57
2017-12-23T11:27:15.541Z,11.43
2017-12-23T11:29:45.423Z,9.23
2017-12-23T11:32:15.345Z,7.83
2017-12-23T11:34:45.301Z,4.87
2017-12-23T11:37:15.189Z,4.80
2017-12-23T11:39:45.062Z,7.00
2017-12-23T11:42:14.945Z,7.50
2017-12-23T11:44:44.859Z,9.60
2017-12-23T11:47:14.755Z,10.67
2017-12-23T11:49:44.672Z,10.83
2017-12-23T11:52:14.567Z,11.87
2017-12-23T11:54:44.459Z,9.27
2017-12-23T11:57:14.385Z,8.47
2017-12-23T11:59:44.313Z,10.77
2017-12-23T12:02:14.192Z,10.80
2017-12-23T12:04:44.265Z,11.80
2017-12-23T12:07:14.130Z,7.70
2017-12-23T12:09:44.029Z,7.53
2017-12-23T12:12:13.895Z,9.23
2017-12-23T12:14:43.802Z,10.00
2017-12-23T12:17:13.708Z,10.90
2017-12-23T12:19:43.588Z,9.37
2017-12-23T12:22:13.499Z,10.30
2017-12-23T12:24:43.536Z,10.40
2017-12-23T12:27:13.429Z,7.97
2017-12-23T12:29:43.355Z,9.33
2017-12-23T12:32:14.657Z,9.33
2017-12-23T12:34:44.622Z,8.37
2017-12-23T12:37:14.545Z,10.40
2017-12-23T12:39:44.430Z,11.80
2017-12-23T12:42:14.358Z,9.37
2017-12-23T12:44:44.235Z,11.73
2017-12-23T12:47:15.379Z,13.50
2017-12-23T12:49:45.383Z,12.03
2017-12-23T12:52:15.337Z,11.87
2017-12-23T12:54:45.216Z,13.10
2017-12-23T12:57:15.186Z,10.07
2017-12-23T12:59:45.105Z,13.60
2017-12-23T13:02:15.141Z,14.40
2017-12-23T13:04:45.125Z,14.60
2017-12-23T13:10:37.708Z,13.17
2017-12-23T13:13:11.731Z,13.60
2017-12-23T13:15:42.474Z,14.70
2017-12-23T13:18:12.409Z,15.13
2017-12-23T13:20:42.458Z,12.90
2017-12-23T13:23:12.360Z,12.30
2017-12-23T13:25:42.310Z,14.80
2017-12-23T13:28:12.337Z,11.30
2017-12-23T13:30:42.276Z,14.90
2017-12-23T13:33:12.179Z,14.33
2017-12-23T13:35:42.112Z,15.20
2017-12-23T13:38:12.104Z,14.57
2017-12-23T13:40:42.018Z,13.73
2017-12-23T13:43:11.928Z,12.90
2017-12-23T13:45:41.864Z,14.20
2017-12-23T13:48:11.754Z,12.43
2017-12-23T13:50:41.667Z,12.93
2017-12-23T13:53:11.680Z,11.00
2017-12-23T13:55:41.610Z,10.43
2017-12-23T13:58:11.525Z,9.60
2017-12-23T14:00:41.524Z,9.70
2017-12-23T14:03:11.474Z,9.37
2017-12-23T14:05:41.411Z,9.37
2017-12-23T14:08:11.352Z,9.13
2017-12-23T14:10:41.241Z,9.00
2017-12-23T14:13:11.166Z,9.57
2017-12-23T14:15:41.107Z,9.93
2017-12-23T14:18:11.107Z,9.30
2017-12-23T14:20:41.011Z,9.37
2017-12-23T14:23:10.904Z,9.90
2017-12-23T14:25:40.794Z,9.93
2017-12-23T14:28:10.745Z,10.07
2017-12-23T14:30:40.725Z,9.07
2017-12-23T14:33:10.639Z,11.13
2017-12-23T14:35:40.567Z,12.03
2017-12-23T14:38:10.541Z,12.40
2017-12-23T14:40:41.059Z,13.00
2017-12-23T14:43:10.967Z,11.27
2017-12-23T14:45:40.940Z,13.90
2017-12-23T14:48:10.832Z,19.43
2017-12-23T14:50:40.731Z,11.33
2017-12-23T14:59:23.730Z,13.13
2017-12-23T15:01:53.643Z,10.77
2017-12-23T15:04:23.547Z,10.37
2017-12-23T15:06:53.551Z,10.13
2017-12-23T15:09:23.511Z,9.43
2017-12-23T15:11:53.479Z,9.07
2017-12-23T15:14:23.461Z,10.07
2017-12-23T15:16:53.398Z,8.93
2017-12-23T15:19:23.399Z,8.67
2017-12-23T15:28:03.090Z,10.70
2017-12-23T15:30:33.228Z,9.10
2017-12-23T15:33:03.200Z,10.57
2017-12-23T15:35:33.129Z,10.90
2017-12-23T15:38:03.276Z,9.87
2017-12-23T15:40:33.188Z,11.10
2017-12-23T15:43:03.173Z,12.50
2017-12-23T15:45:33.081Z,11.10
2017-12-23T15:48:03.031Z,9.50
2017-12-23T15:50:33.022Z,11.27
2017-12-23T15:53:02.998Z,10.40
2017-12-23T15:55:33.008Z,10.63
2017-12-23T15:58:02.983Z,11.03
2017-12-23T16:00:33.098Z,10.10
2017-12-23T16:03:03.077Z,9.90
2017-12-23T16:05:33.163Z,9.83
2017-12-23T16:08:03.200Z,9.97
2017-12-23T16:10:33.320Z,9.80
2017-12-23T16:13:04.125Z,11.10
2017-12-23T16:15:34.112Z,11.80
2017-12-23T16:18:04.000Z,10.63
2017-12-23T16:20:33.952Z,7.47
2017-12-23T16:23:03.887Z,11.07
2017-12-23T16:25:33.796Z,10.87
2017-12-23T16:28:18.567Z,11.77
2017-12-23T16:33:31.825Z,11.73
2017-12-23T16:36:01.776Z,11.40
2017-12-23T16:38:31.741Z,9.97
2017-12-23T16:41:02.441Z,11.33
2017-12-23T16:43:32.455Z,10.57
2017-12-23T16:46:02.380Z,10.73
2017-12-23T16:48:32.324Z,10.43
2017-12-23T16:51:02.236Z,10.27
2017-12-23T16:53:32.279Z,10.10
2017-12-23T16:56:02.255Z,10.13
2017-12-23T16:58:32.205Z,8.93
2017-12-23T17:01:02.199Z,10.00
2017-12-23T17:03:32.231Z,10.50
2017-12-23T17:06:02.122Z,9.10
2017-12-23T17:08:32.060Z,8.77
2017-12-23T17:11:02.010Z,9.17
2017-12-23T17:13:31.922Z,9.47
2017-12-23T17:16:01.881Z,9.57
2017-12-23T17:18:31.757Z,10.47
2017-12-23T17:21:01.938Z,11.30
2017-12-23T17:23:31.932Z,8.80
2017-12-23T17:26:01.983Z,10.57
2017-12-23T17:28:43.490Z,12.97
2017-12-23T17:31:13.415Z,10.40
2017-12-23T17:33:43.310Z,10.30
2017-12-23T17:36:13.252Z,13.00
2017-12-23T17:38:43.147Z,11.27
2017-12-23T17:41:13.125Z,10.37
2017-12-23T17:43:43.051Z,10.60
2017-12-23T17:46:12.988Z,11.37
2017-12-23T17:48:42.900Z,11.57
2017-12-23T17:51:12.843Z,11.53
2017-12-23T17:53:42.758Z,10.90
2017-12-23T17:56:12.658Z,10.60
2017-12-23T17:58:42.610Z,11.07
2017-12-23T18:01:12.519Z,10.10
2017-12-23T18:03:42.465Z,10.87
2017-12-23T18:06:12.356Z,11.00
2017-12-23T18:08:42.321Z,9.17
2017-12-23T18:11:12.261Z,10.23
2017-12-23T18:13:42.228Z,10.37
2017-12-23T18:16:12.137Z,11.23
2017-12-23T18:18:42.219Z,10.47
2017-12-23T18:21:12.212Z,9.20
2017-12-23T18:23:42.124Z,11.20
2017-12-23T18:26:12.003Z,12.17
2017-12-23T18:28:41.953Z,10.53
2017-12-23T18:31:11.866Z,10.80
2017-12-23T18:33:41.792Z,11.03
2017-12-23T18:36:11.717Z,10.53
2017-12-23T18:38:41.641Z,10.87
2017-12-23T18:41:11.555Z,7.63
2017-12-23T18:43:41.497Z,10.67
2017-12-23T18:46:12.159Z,12.27
2017-12-23T18:48:42.132Z,11.30
2017-12-23T18:51:12.038Z,9.83
2017-12-23T18:53:42.015Z,11.93
2017-12-23T18:56:11.989Z,11.90
2017-12-23T18:58:41.885Z,12.47
2017-12-23T19:01:11.806Z,13.00
2017-12-23T19:03:41.894Z,12.80
2017-12-23T19:06:15.398Z,11.87
2017-12-23T19:08:45.444Z,13.27
2017-12-23T19:11:15.343Z,12.17
2017-12-23T19:13:45.260Z,11.97
2017-12-23T19:16:26.953Z,12.20
2017-12-23T19:18:56.934Z,14.13
2017-12-23T19:21:26.885Z,12.77
2017-12-23T19:23:56.823Z,13.40
2017-12-23T19:26:26.728Z,9.03
2017-12-23T19:28:56.716Z,12.60
2017-12-23T19:31:26.624Z,13.47
2017-12-23T19:33:56.546Z,13.40
2017-12-23T19:36:26.442Z,11.93
2017-12-23T19:38:56.488Z,13.70
2017-12-23T19:41:26.467Z,13.73
2017-12-23T19:43:56.401Z,14.03
2017-12-23T19:46:26.348Z,14.93
2017-12-23T19:48:56.292Z,14.43
2017-12-23T19:51:26.200Z,13.33
2017-12-23T19:53:56.129Z,15.67
2017-12-23T19:56:26.037Z,17.47
2017-12-23T19:58:55.996Z,18.73
2017-12-23T20:01:25.888Z,17.90
2017-12-23T20:03:55.804Z,14.37
2017-12-23T20:06:25.777Z,15.80
2017-12-23T20:08:55.691Z,16.80
2017-12-23T20:11:25.646Z,16.77
2017-12-23T20:13:55.525Z,14.57
2017-12-23T20:16:25.465Z,15.80
2017-12-23T20:18:55.412Z,16.53
2017-12-23T20:21:25.327Z,15.17
2017-12-23T20:23:55.306Z,15.30
2017-12-23T20:26:25.268Z,13.40
2017-12-23T20:28:55.247Z,15.43
2017-12-23T20:31:25.180Z,16.60
2017-12-23T20:33:55.123Z,17.77
2017-12-23T20:36:25.108Z,15.23
2017-12-23T20:38:55.024Z,19.03
2017-12-23T20:41:24.949Z,19.33
2017-12-23T20:43:54.900Z,17.77
2017-12-23T20:46:24.807Z,17.70
2017-12-23T20:48:54.794Z,18.83
2017-12-23T20:51:24.729Z,18.27
2017-12-23T20:53:54.726Z,16.60
2017-12-23T20:56:24.639Z,18.17
2017-12-23T20:58:54.593Z,19.93
2017-12-23T21:01:24.505Z,18.27
2017-12-23T21:03:54.570Z,19.90
2017-12-23T21:06:24.470Z,16.93
2017-12-23T21:08:54.424Z,16.67
2017-12-23T21:11:24.357Z,16.50
2017-12-23T21:13:54.364Z,17.30
2017-12-23T21:16:24.313Z,16.97
2017-12-23T21:18:54.257Z,17.93
2017-12-23T21:21:24.262Z,17.40
2017-12-23T21:23:54.190Z,16.60
2017-12-23T21:26:24.121Z,17.73
2017-12-23T21:28:54.138Z,17.60
2017-12-23T21:31:24.037Z,14.50
2017-12-23T21:33:53.963Z,14.00
2017-12-23T21:36:23.866Z,15.60
2017-12-23T21:38:53.761Z,17.80
2017-12-23T21:41:23.743Z,15.50
2017-12-23T21:43:53.762Z,15.53
2017-12-23T21:46:23.735Z,18.73
2017-12-23T21:48:53.702Z,15.93
2017-12-23T21:51:23.632Z,16.70
2017-12-23T21:53:53.520Z,15.50
2017-12-23T21:56:23.456Z,15.70
2017-12-23T21:58:53.441Z,15.73
2017-12-23T22:01:23.465Z,17.03
2017-12-23T22:03:53.387Z,17.70
2017-12-23T22:06:23.426Z,15.00
2017-12-23T22:08:53.359Z,17.10
2017-12-23T22:11:23.317Z,13.40
2017-12-23T22:13:53.265Z,18.17
2017-12-23T22:16:23.200Z,17.23
2017-12-23T22:18:53.104Z,18.30
2017-12-23T22:21:23.114Z,21.30
2017-12-23T22:23:53.072Z,18.80
2017-12-23T22:26:23.033Z,22.90
2017-12-23T22:28:52.950Z,19.67
2017-12-23T22:31:23.005Z,19.80
2017-12-23T22:33:52.953Z,18.60
2017-12-23T22:36:22.926Z,19.83
2017-12-23T22:38:52.859Z,15.70
2017-12-23T22:41:22.802Z,20.27
2017-12-23T22:43:52.803Z,18.40
2017-12-23T22:46:22.736Z,20.43
2017-12-23T22:48:52.776Z,19.20
2017-12-23T22:51:22.727Z,20.87
2017-12-23T22:53:52.667Z,18.50
2017-12-23T22:56:22.585Z,17.50
2017-12-23T22:58:52.600Z,20.50
2017-12-23T23:01:22.520Z,18.03
2017-12-23T23:03:52.460Z,17.27
2017-12-23T23:06:22.424Z,20.23
2017-12-23T23:08:52.347Z,17.87
2017-12-23T23:14:27.201Z,17.10
2017-12-23T23:16:57.139Z,16.37
2017-12-23T23:19:28.378Z,16.70
2017-12-23T23:21:58.315Z,17.60
2017-12-23T23:24:28.253Z,18.13
2017-12-23T23:26:58.184Z,18.50
2017-12-23T23:29:28.076Z,17.47
2017-12-23T23:31:57.996Z,17.80
2017-12-23T23:34:27.929Z,15.10
2017-12-23T23:36:57.869Z,16.90
2017-12-23T23:39:27.776Z,18.10
2017-12-23T23:41:57.739Z,17.30
2017-12-23T23:44:27.630Z,17.33
2017-12-23T23:46:57.618Z,17.70
2017-12-23T23:49:27.519Z,19.47
2017-12-23T23:51:57.413Z,19.73
2017-12-23T23:54:27.294Z,15.27
2017-12-23T23:56:57.263Z,18.50
2017-12-23T23:59:27.253Z,17.97
